This is the latest recevied weather packets stored in our database for station/object DG2MCM-11. If no packets are shown the sender has not sent any weather packets the latest 10 day(s).
| Time | Temp. | Humidity | Pressure | Rain* | Wind** | Luminosity | Snow |
|---|---|---|---|---|---|---|---|
| 1777888103 | 28.33° C | 30% | 1010.1 hPa | 0 mm | - | - | - |
| 1777886900 | 30.56° C | 29% | 1009.8 hPa | 0 mm | - | - | - |
| 1777886298 | 28.89° C | 30% | 1010.3 hPa | 0 mm | - | - | - |
| 1777885697 | 31.11° C | 28% | 1009.6 hPa | 0 mm | - | - | - |
| 1777885094 | 31.67° C | 27% | 1009.5 hPa | 0 mm | - | - | - |
| 1777884493 | 30.56° C | 27% | 1009.9 hPa | 0 mm | - | - | - |
| 1777883290 | 30.56° C | 28% | 1010.1 hPa | 0 mm | - | - | - |
| 1777882688 | 29.44° C | 30% | 1010.5 hPa | 0 mm | - | - | - |
| 1777882085 | 30.56° C | 28% | 1010.3 hPa | 0 mm | - | - | - |
| 1777880882 | 28.33° C | 29% | 1011.1 hPa | 0 mm | - | - | - |
| 1777878477 | 21.11° C | 43% | 1013.2 hPa | 0 mm | - | - | - |
| 1777877875 | 20° C | 46% | 1013.6 hPa | 0 mm | - | - | - |
| 1777877274 | 19.44° C | 46% | 1013.6 hPa | 0 mm | - | - | - |
| 1777876672 | 17.78° C | 52% | 1014.1 hPa | 0 mm | - | - | - |
| 1777875520 | 15° C | 62% | 1015 hPa | 0 mm | - | - | - |
| 1777874918 | 13.89° C | 66% | 1015.5 hPa | 0 mm | - | - | - |
| 1777874316 | 12.22° C | 69% | 1015.9 hPa | 0 mm | - | - | - |
| 1777873714 | 11.67° C | 72% | 1015.9 hPa | 0 mm | - | - | - |
| 1777870107 | 8.33° C | 81% | 1017.1 hPa | 0 mm | - | - | - |
| 1777869505 | 8.33° C | 80% | 1017 hPa | 0 mm | - | - | - |
| 1777862891 | 10° C | 77% | 1016.8 hPa | 0 mm | - | - | - |
| 1777861688 | 10.56° C | 76% | 1016.7 hPa | 0 mm | - | - | - |
| 1777861087 | 11.11° C | 73% | 1016.7 hPa | 0 mm | - | - | - |
| 1777858681 | 12.22° C | 70% | 1016.4 hPa | 0 mm | - | - | - |
| 1777858080 | 12.22° C | 69% | 1016.3 hPa | 0 mm | - | - | - |
* Rain latest hour (hover to see other rain measurements)
** Current wind speed in m/s (hover to see current wind gust speed)